sensor_id;sensor_type;location;lat;lon;timestamp;P1;durP1;ratioP1;P2;durP2;ratioP2
37593;SDS011;23441;50.856;6.076;2023-12-20T00:00:56;32.38;;;18.27;;
37593;SDS011;23441;50.856;6.076;2023-12-20T00:03:42;31.23;;;18.27;;
37593;SDS011;23441;50.856;6.076;2023-12-20T00:06:28;28.92;;;16.80;;
37593;SDS011;23441;50.856;6.076;2023-12-20T00:09:15;30.50;;;17.15;;
37593;SDS011;23441;50.856;6.076;2023-12-20T00:12:00;32.10;;;17.00;;
37593;SDS011;23441;50.856;6.076;2023-12-20T00:14:46;36.03;;;18.77;;
37593;SDS011;23441;50.856;6.076;2023-12-20T00:17:32;33.67;;;16.88;;
37593;SDS011;23441;50.856;6.076;2023-12-20T00:20:18;29.65;;;17.20;;
37593;SDS011;23441;50.856;6.076;2023-12-20T00:23:04;31.48;;;16.95;;
37593;SDS011;23441;50.856;6.076;2023-12-20T00:25:50;35.63;;;17.48;;
37593;SDS011;23441;50.856;6.076;2023-12-20T00:28:36;34.10;;;17.65;;
37593;SDS011;23441;50.856;6.076;2023-12-20T00:31:23;33.80;;;17.73;;
37593;SDS011;23441;50.856;6.076;2023-12-20T00:34:09;28.05;;;15.50;;
37593;SDS011;23441;50.856;6.076;2023-12-20T00:36:54;34.78;;;15.23;;
37593;SDS011;23441;50.856;6.076;2023-12-20T00:39:40;28.60;;;15.65;;
37593;SDS011;23441;50.856;6.076;2023-12-20T00:42:26;22.88;;;13.95;;
37593;SDS011;23441;50.856;6.076;2023-12-20T00:45:12;28.13;;;15.57;;
37593;SDS011;23441;50.856;6.076;2023-12-20T00:47:59;27.30;;;15.10;;
37593;SDS011;23441;50.856;6.076;2023-12-20T00:50:45;31.05;;;15.65;;
37593;SDS011;23441;50.856;6.076;2023-12-20T00:53:31;24.98;;;14.18;;
37593;SDS011;23441;50.856;6.076;2023-12-20T00:56:17;31.98;;;15.18;;
37593;SDS011;23441;50.856;6.076;2023-12-20T00:59:03;20.73;;;10.00;;
37593;SDS011;23441;50.856;6.076;2023-12-20T01:01:49;14.95;;;6.55;;
37593;SDS011;23441;50.856;6.076;2023-12-20T01:04:35;17.85;;;4.72;;
37593;SDS011;23441;50.856;6.076;2023-12-20T01:07:21;22.17;;;3.92;;
37593;SDS011;23441;50.856;6.076;2023-12-20T01:10:07;16.30;;;3.80;;
37593;SDS011;23441;50.856;6.076;2023-12-20T01:12:53;14.27;;;3.47;;
37593;SDS011;23441;50.856;6.076;2023-12-20T01:15:39;16.15;;;3.10;;
37593;SDS011;23441;50.856;6.076;2023-12-20T01:18:25;14.20;;;3.05;;
37593;SDS011;23441;50.856;6.076;2023-12-20T01:21:12;12.93;;;3.60;;
37593;SDS011;23441;50.856;6.076;2023-12-20T01:23:58;12.00;;;2.92;;
37593;SDS011;23441;50.856;6.076;2023-12-20T01:26:44;14.95;;;3.50;;
37593;SDS011;23441;50.856;6.076;2023-12-20T01:29:29;11.75;;;2.95;;
37593;SDS011;23441;50.856;6.076;2023-12-20T01:32:15;14.43;;;3.53;;
37593;SDS011;23441;50.856;6.076;2023-12-20T01:35:01;19.13;;;4.05;;
37593;SDS011;23441;50.856;6.076;2023-12-20T01:37:47;17.17;;;3.63;;
37593;SDS011;23441;50.856;6.076;2023-12-20T01:40:33;11.82;;;4.03;;
37593;SDS011;23441;50.856;6.076;2023-12-20T01:43:19;19.60;;;4.63;;
37593;SDS011;23441;50.856;6.076;2023-12-20T01:46:05;15.60;;;4.75;;
37593;SDS011;23441;50.856;6.076;2023-12-20T01:48:51;11.93;;;4.60;;
37593;SDS011;23441;50.856;6.076;2023-12-20T01:51:38;10.85;;;4.18;;
37593;SDS011;23441;50.856;6.076;2023-12-20T01:54:24;13.05;;;4.40;;
37593;SDS011;23441;50.856;6.076;2023-12-20T01:57:10;14.88;;;4.72;;
37593;SDS011;23441;50.856;6.076;2023-12-20T01:59:56;13.25;;;4.15;;
37593;SDS011;23441;50.856;6.076;2023-12-20T02:02:43;18.77;;;5.57;;
37593;SDS011;23441;50.856;6.076;2023-12-20T02:05:30;16.83;;;4.50;;
37593;SDS011;23441;50.856;6.076;2023-12-20T02:08:17;14.77;;;3.75;;
37593;SDS011;23441;50.856;6.076;2023-12-20T02:11:03;14.75;;;3.95;;
37593;SDS011;23441;50.856;6.076;2023-12-20T02:13:49;15.18;;;3.90;;
37593;SDS011;23441;50.856;6.076;2023-12-20T02:16:35;9.50;;;3.35;;
37593;SDS011;23441;50.856;6.076;2023-12-20T02:19:21;14.43;;;3.58;;
37593;SDS011;23441;50.856;6.076;2023-12-20T02:22:08;13.57;;;3.08;;
37593;SDS011;23441;50.856;6.076;2023-12-20T02:24:57;16.83;;;4.00;;
37593;SDS011;23441;50.856;6.076;2023-12-20T02:27:43;16.92;;;3.03;;
37593;SDS011;23441;50.856;6.076;2023-12-20T02:30:29;18.88;;;3.28;;
37593;SDS011;23441;50.856;6.076;2023-12-20T02:33:15;17.83;;;3.35;;
37593;SDS011;23441;50.856;6.076;2023-12-20T02:36:01;13.18;;;3.45;;
37593;SDS011;23441;50.856;6.076;2023-12-20T02:38:47;13.52;;;3.30;;
37593;SDS011;23441;50.856;6.076;2023-12-20T02:41:33;14.52;;;4.03;;
37593;SDS011;23441;50.856;6.076;2023-12-20T02:44:19;16.45;;;3.50;;
37593;SDS011;23441;50.856;6.076;2023-12-20T02:47:05;16.13;;;4.40;;
37593;SDS011;23441;50.856;6.076;2023-12-20T02:49:51;12.35;;;3.90;;
37593;SDS011;23441;50.856;6.076;2023-12-20T02:52:38;15.13;;;3.78;;
37593;SDS011;23441;50.856;6.076;2023-12-20T02:55:24;16.75;;;4.20;;
37593;SDS011;23441;50.856;6.076;2023-12-20T02:58:10;20.92;;;3.75;;
37593;SDS011;23441;50.856;6.076;2023-12-20T03:00:56;12.68;;;4.32;;
37593;SDS011;23441;50.856;6.076;2023-12-20T03:03:41;10.15;;;4.22;;
37593;SDS011;23441;50.856;6.076;2023-12-20T03:06:27;20.25;;;4.90;;
37593;SDS011;23441;50.856;6.076;2023-12-20T03:09:13;19.80;;;5.00;;
37593;SDS011;23441;50.856;6.076;2023-12-20T03:11:59;20.05;;;6.07;;
37593;SDS011;23441;50.856;6.076;2023-12-20T03:14:45;16.05;;;5.03;;
37593;SDS011;23441;50.856;6.076;2023-12-20T03:17:32;13.18;;;5.53;;
37593;SDS011;23441;50.856;6.076;2023-12-20T03:20:18;17.17;;;5.18;;
37593;SDS011;23441;50.856;6.076;2023-12-20T03:23:04;16.25;;;5.45;;
37593;SDS011;23441;50.856;6.076;2023-12-20T03:25:50;22.77;;;5.82;;
37593;SDS011;23441;50.856;6.076;2023-12-20T03:28:36;14.35;;;5.35;;
37593;SDS011;23441;50.856;6.076;2023-12-20T03:31:22;22.23;;;6.78;;
37593;SDS011;23441;50.856;6.076;2023-12-20T03:34:08;15.55;;;4.40;;
37593;SDS011;23441;50.856;6.076;2023-12-20T03:36:54;15.45;;;5.60;;
37593;SDS011;23441;50.856;6.076;2023-12-20T03:39:40;13.32;;;4.60;;
37593;SDS011;23441;50.856;6.076;2023-12-20T03:42:26;20.58;;;4.88;;
37593;SDS011;23441;50.856;6.076;2023-12-20T03:45:12;12.23;;;4.82;;
37593;SDS011;23441;50.856;6.076;2023-12-20T03:47:58;13.07;;;5.13;;
37593;SDS011;23441;50.856;6.076;2023-12-20T03:50:43;19.67;;;4.70;;
37593;SDS011;23441;50.856;6.076;2023-12-20T03:53:29;22.38;;;4.18;;
37593;SDS011;23441;50.856;6.076;2023-12-20T03:56:15;15.15;;;4.60;;
37593;SDS011;23441;50.856;6.076;2023-12-20T03:59:01;11.73;;;4.38;;
37593;SDS011;23441;50.856;6.076;2023-12-20T04:01:47;12.52;;;4.65;;
37593;SDS011;23441;50.856;6.076;2023-12-20T04:04:33;17.13;;;4.90;;
37593;SDS011;23441;50.856;6.076;2023-12-20T04:07:19;15.40;;;4.38;;
37593;SDS011;23441;50.856;6.076;2023-12-20T04:10:05;16.23;;;4.85;;
37593;SDS011;23441;50.856;6.076;2023-12-20T04:12:51;22.27;;;8.63;;
37593;SDS011;23441;50.856;6.076;2023-12-20T04:15:37;22.08;;;5.03;;
37593;SDS011;23441;50.856;6.076;2023-12-20T04:18:23;26.55;;;4.90;;
37593;SDS011;23441;50.856;6.076;2023-12-20T04:21:09;14.85;;;4.45;;
37593;SDS011;23441;50.856;6.076;2023-12-20T04:23:55;14.82;;;4.63;;
37593;SDS011;23441;50.856;6.076;2023-12-20T04:26:42;17.15;;;4.55;;
37593;SDS011;23441;50.856;6.076;2023-12-20T04:29:27;16.52;;;5.05;;
37593;SDS011;23441;50.856;6.076;2023-12-20T04:32:13;17.67;;;4.68;;
37593;SDS011;23441;50.856;6.076;2023-12-20T04:35:00;19.15;;;4.28;;
37593;SDS011;23441;50.856;6.076;2023-12-20T04:37:45;13.88;;;4.32;;
37593;SDS011;23441;50.856;6.076;2023-12-20T04:40:32;17.70;;;4.07;;
37593;SDS011;23441;50.856;6.076;2023-12-20T04:43:18;18.95;;;4.65;;
37593;SDS011;23441;50.856;6.076;2023-12-20T04:46:04;16.85;;;3.72;;
37593;SDS011;23441;50.856;6.076;2023-12-20T04:48:50;14.10;;;4.50;;
37593;SDS011;23441;50.856;6.076;2023-12-20T04:51:36;14.75;;;3.83;;
37593;SDS011;23441;50.856;6.076;2023-12-20T04:54:23;20.20;;;4.80;;
37593;SDS011;23441;50.856;6.076;2023-12-20T04:57:09;13.85;;;3.97;;
37593;SDS011;23441;50.856;6.076;2023-12-20T04:59:55;19.75;;;3.75;;
37593;SDS011;23441;50.856;6.076;2023-12-20T05:02:41;15.65;;;3.60;;
37593;SDS011;23441;50.856;6.076;2023-12-20T05:05:27;15.85;;;4.03;;
37593;SDS011;23441;50.856;6.076;2023-12-20T05:08:13;19.30;;;4.07;;
37593;SDS011;23441;50.856;6.076;2023-12-20T05:10:59;16.13;;;5.65;;
37593;SDS011;23441;50.856;6.076;2023-12-20T05:13:45;11.40;;;3.60;;
37593;SDS011;23441;50.856;6.076;2023-12-20T05:16:31;19.23;;;4.22;;
37593;SDS011;23441;50.856;6.076;2023-12-20T05:19:17;15.05;;;4.55;;
37593;SDS011;23441;50.856;6.076;2023-12-20T05:22:03;22.73;;;4.45;;
37593;SDS011;23441;50.856;6.076;2023-12-20T05:24:49;11.90;;;4.45;;
37593;SDS011;23441;50.856;6.076;2023-12-20T05:27:35;12.85;;;4.28;;
37593;SDS011;23441;50.856;6.076;2023-12-20T05:30:21;14.55;;;4.15;;
37593;SDS011;23441;50.856;6.076;2023-12-20T05:33:07;19.05;;;5.35;;
37593;SDS011;23441;50.856;6.076;2023-12-20T05:35:53;15.27;;;4.90;;
37593;SDS011;23441;50.856;6.076;2023-12-20T05:38:39;16.10;;;5.32;;
37593;SDS011;23441;50.856;6.076;2023-12-20T05:41:24;24.02;;;5.72;;
37593;SDS011;23441;50.856;6.076;2023-12-20T05:44:10;14.98;;;4.93;;
37593;SDS011;23441;50.856;6.076;2023-12-20T05:46:56;22.15;;;5.80;;
37593;SDS011;23441;50.856;6.076;2023-12-20T05:49:43;22.77;;;5.43;;
37593;SDS011;23441;50.856;6.076;2023-12-20T05:52:29;15.32;;;5.38;;
37593;SDS011;23441;50.856;6.076;2023-12-20T05:55:15;16.42;;;4.97;;
37593;SDS011;23441;50.856;6.076;2023-12-20T05:58:01;19.42;;;5.68;;
37593;SDS011;23441;50.856;6.076;2023-12-20T06:00:47;19.38;;;5.15;;
37593;SDS011;23441;50.856;6.076;2023-12-20T06:03:34;17.25;;;4.90;;
37593;SDS011;23441;50.856;6.076;2023-12-20T06:06:20;15.48;;;4.75;;
37593;SDS011;23441;50.856;6.076;2023-12-20T06:09:06;16.25;;;4.97;;
37593;SDS011;23441;50.856;6.076;2023-12-20T06:11:51;16.88;;;4.75;;
37593;SDS011;23441;50.856;6.076;2023-12-20T06:14:37;19.83;;;4.90;;
37593;SDS011;23441;50.856;6.076;2023-12-20T06:17:23;17.63;;;5.10;;
37593;SDS011;23441;50.856;6.076;2023-12-20T06:20:09;20.27;;;4.97;;
37593;SDS011;23441;50.856;6.076;2023-12-20T06:22:56;24.65;;;5.65;;
37593;SDS011;23441;50.856;6.076;2023-12-20T06:25:42;17.77;;;5.65;;
37593;SDS011;23441;50.856;6.076;2023-12-20T06:28:28;23.00;;;6.00;;
37593;SDS011;23441;50.856;6.076;2023-12-20T06:31:14;17.38;;;5.32;;
37593;SDS011;23441;50.856;6.076;2023-12-20T06:34:00;20.40;;;5.57;;
37593;SDS011;23441;50.856;6.076;2023-12-20T06:36:46;17.67;;;4.88;;
37593;SDS011;23441;50.856;6.076;2023-12-20T06:39:32;13.75;;;5.55;;
37593;SDS011;23441;50.856;6.076;2023-12-20T06:42:19;15.20;;;5.25;;
37593;SDS011;23441;50.856;6.076;2023-12-20T06:45:05;19.08;;;5.90;;
37593;SDS011;23441;50.856;6.076;2023-12-20T06:47:51;17.67;;;5.72;;
37593;SDS011;23441;50.856;6.076;2023-12-20T06:50:37;21.27;;;6.00;;
37593;SDS011;23441;50.856;6.076;2023-12-20T06:53:25;14.55;;;5.75;;
37593;SDS011;23441;50.856;6.076;2023-12-20T06:56:11;19.08;;;5.60;;
37593;SDS011;23441;50.856;6.076;2023-12-20T06:58:57;24.02;;;5.93;;
37593;SDS011;23441;50.856;6.076;2023-12-20T07:01:47;23.20;;;5.28;;
37593;SDS011;23441;50.856;6.076;2023-12-20T07:04:33;24.60;;;6.05;;
37593;SDS011;23441;50.856;6.076;2023-12-20T07:07:19;21.15;;;5.43;;
37593;SDS011;23441;50.856;6.076;2023-12-20T07:10:05;20.52;;;5.65;;
37593;SDS011;23441;50.856;6.076;2023-12-20T07:12:53;26.35;;;6.55;;
37593;SDS011;23441;50.856;6.076;2023-12-20T07:15:40;19.98;;;6.65;;
37593;SDS011;23441;50.856;6.076;2023-12-20T07:18:26;23.10;;;6.05;;
37593;SDS011;23441;50.856;6.076;2023-12-20T07:21:12;11.82;;;5.65;;
37593;SDS011;23441;50.856;6.076;2023-12-20T07:23:58;18.25;;;5.75;;
37593;SDS011;23441;50.856;6.076;2023-12-20T07:26:44;18.80;;;5.65;;
37593;SDS011;23441;50.856;6.076;2023-12-20T07:29:30;23.63;;;6.63;;
37593;SDS011;23441;50.856;6.076;2023-12-20T07:32:16;17.88;;;5.93;;
37593;SDS011;23441;50.856;6.076;2023-12-20T07:35:02;16.40;;;6.07;;
37593;SDS011;23441;50.856;6.076;2023-12-20T07:37:48;23.67;;;6.30;;
37593;SDS011;23441;50.856;6.076;2023-12-20T07:40:34;20.83;;;6.10;;
37593;SDS011;23441;50.856;6.076;2023-12-20T07:43:20;18.25;;;5.68;;
37593;SDS011;23441;50.856;6.076;2023-12-20T07:46:09;17.85;;;6.47;;
37593;SDS011;23441;50.856;6.076;2023-12-20T07:48:55;22.42;;;6.05;;
37593;SDS011;23441;50.856;6.076;2023-12-20T07:51:41;18.17;;;6.00;;
37593;SDS011;23441;50.856;6.076;2023-12-20T07:54:27;26.08;;;10.55;;
37593;SDS011;23441;50.856;6.076;2023-12-20T07:57:13;16.10;;;6.57;;
37593;SDS011;23441;50.856;6.076;2023-12-20T07:59:59;17.05;;;6.38;;
37593;SDS011;23441;50.856;6.076;2023-12-20T08:02:45;16.98;;;5.93;;
37593;SDS011;23441;50.856;6.076;2023-12-20T08:05:31;21.48;;;5.53;;
37593;SDS011;23441;50.856;6.076;2023-12-20T08:08:17;19.15;;;5.75;;
37593;SDS011;23441;50.856;6.076;2023-12-20T08:11:03;20.67;;;6.20;;
37593;SDS011;23441;50.856;6.076;2023-12-20T08:13:49;17.67;;;5.47;;
37593;SDS011;23441;50.856;6.076;2023-12-20T08:16:35;16.25;;;6.22;;
37593;SDS011;23441;50.856;6.076;2023-12-20T08:19:21;16.77;;;5.50;;
37593;SDS011;23441;50.856;6.076;2023-12-20T08:22:07;16.77;;;5.90;;
37593;SDS011;23441;50.856;6.076;2023-12-20T08:24:53;21.38;;;6.80;;
37593;SDS011;23441;50.856;6.076;2023-12-20T08:27:39;22.20;;;7.10;;
37593;SDS011;23441;50.856;6.076;2023-12-20T08:30:26;18.48;;;5.97;;
37593;SDS011;23441;50.856;6.076;2023-12-20T08:33:12;23.75;;;5.95;;
37593;SDS011;23441;50.856;6.076;2023-12-20T08:35:58;24.40;;;8.15;;
37593;SDS011;23441;50.856;6.076;2023-12-20T08:38:44;18.60;;;5.93;;
37593;SDS011;23441;50.856;6.076;2023-12-20T08:41:30;21.92;;;5.80;;
37593;SDS011;23441;50.856;6.076;2023-12-20T08:44:16;21.20;;;6.55;;
37593;SDS011;23441;50.856;6.076;2023-12-20T08:47:02;16.58;;;6.05;;
37593;SDS011;23441;50.856;6.076;2023-12-20T08:49:48;16.02;;;6.60;;
37593;SDS011;23441;50.856;6.076;2023-12-20T08:52:34;21.77;;;5.85;;
37593;SDS011;23441;50.856;6.076;2023-12-20T08:55:20;16.20;;;5.78;;
37593;SDS011;23441;50.856;6.076;2023-12-20T08:58:06;15.25;;;4.90;;
37593;SDS011;23441;50.856;6.076;2023-12-20T09:00:53;20.42;;;6.03;;
37593;SDS011;23441;50.856;6.076;2023-12-20T09:03:39;21.15;;;5.50;;
37593;SDS011;23441;50.856;6.076;2023-12-20T09:06:25;10.95;;;4.63;;
37593;SDS011;23441;50.856;6.076;2023-12-20T09:09:11;20.05;;;5.55;;
37593;SDS011;23441;50.856;6.076;2023-12-20T09:11:59;19.48;;;5.05;;
37593;SDS011;23441;50.856;6.076;2023-12-20T09:14:45;16.60;;;4.90;;
37593;SDS011;23441;50.856;6.076;2023-12-20T09:17:32;20.60;;;4.90;;
37593;SDS011;23441;50.856;6.076;2023-12-20T09:20:18;16.73;;;4.75;;
37593;SDS011;23441;50.856;6.076;2023-12-20T09:23:04;14.52;;;4.55;;
37593;SDS011;23441;50.856;6.076;2023-12-20T09:25:50;16.08;;;4.15;;
37593;SDS011;23441;50.856;6.076;2023-12-20T09:28:36;15.30;;;4.47;;
37593;SDS011;23441;50.856;6.076;2023-12-20T09:31:22;14.05;;;4.80;;
37593;SDS011;23441;50.856;6.076;2023-12-20T09:34:08;18.13;;;5.30;;
37593;SDS011;23441;50.856;6.076;2023-12-20T09:36:54;16.95;;;5.63;;
37593;SDS011;23441;50.856;6.076;2023-12-20T09:39:40;16.02;;;4.78;;
37593;SDS011;23441;50.856;6.076;2023-12-20T09:42:29;23.13;;;5.25;;
37593;SDS011;23441;50.856;6.076;2023-12-20T09:45:18;17.83;;;4.88;;
37593;SDS011;23441;50.856;6.076;2023-12-20T09:48:07;12.70;;;4.20;;
37593;SDS011;23441;50.856;6.076;2023-12-20T09:50:56;18.02;;;4.38;;
37593;SDS011;23441;50.856;6.076;2023-12-20T09:53:42;17.20;;;4.68;;
37593;SDS011;23441;50.856;6.076;2023-12-20T09:56:28;15.45;;;4.78;;
37593;SDS011;23441;50.856;6.076;2023-12-20T09:59:14;12.63;;;3.97;;
37593;SDS011;23441;50.856;6.076;2023-12-20T10:02:01;9.25;;;3.67;;
37593;SDS011;23441;50.856;6.076;2023-12-20T10:04:50;19.60;;;4.38;;
37593;SDS011;23441;50.856;6.076;2023-12-20T10:07:36;14.50;;;3.70;;
37593;SDS011;23441;50.856;6.076;2023-12-20T10:10:23;10.20;;;3.97;;
37593;SDS011;23441;50.856;6.076;2023-12-20T10:13:10;13.20;;;3.67;;
37593;SDS011;23441;50.856;6.076;2023-12-20T10:15:56;16.90;;;3.97;;
37593;SDS011;23441;50.856;6.076;2023-12-20T10:18:42;16.25;;;3.50;;
37593;SDS011;23441;50.856;6.076;2023-12-20T10:21:30;14.00;;;3.80;;
37593;SDS011;23441;50.856;6.076;2023-12-20T10:24:19;10.82;;;3.33;;
37593;SDS011;23441;50.856;6.076;2023-12-20T10:27:06;15.82;;;4.45;;
37593;SDS011;23441;50.856;6.076;2023-12-20T10:29:53;15.88;;;4.10;;
37593;SDS011;23441;50.856;6.076;2023-12-20T10:32:38;14.43;;;3.58;;
37593;SDS011;23441;50.856;6.076;2023-12-20T10:35:24;13.73;;;3.92;;
37593;SDS011;23441;50.856;6.076;2023-12-20T10:38:11;12.27;;;3.65;;
37593;SDS011;23441;50.856;6.076;2023-12-20T10:40:59;15.45;;;4.32;;
37593;SDS011;23441;50.856;6.076;2023-12-20T10:43:49;16.63;;;4.03;;
37593;SDS011;23441;50.856;6.076;2023-12-20T10:46:37;18.67;;;4.15;;
37593;SDS011;23441;50.856;6.076;2023-12-20T10:49:25;11.45;;;4.13;;
37593;SDS011;23441;50.856;6.076;2023-12-20T10:52:12;12.98;;;2.88;;
37593;SDS011;23441;50.856;6.076;2023-12-20T10:54:58;14.40;;;3.30;;
37593;SDS011;23441;50.856;6.076;2023-12-20T10:57:44;11.52;;;3.00;;
37593;SDS011;23441;50.856;6.076;2023-12-20T11:00:38;15.95;;;3.30;;
37593;SDS011;23441;50.856;6.076;2023-12-20T11:03:28;20.70;;;3.92;;
37593;SDS011;23441;50.856;6.076;2023-12-20T11:06:29;11.98;;;4.28;;
37593;SDS011;23441;50.856;6.076;2023-12-20T11:09:38;11.90;;;3.30;;
37593;SDS011;23441;50.856;6.076;2023-12-20T11:12:37;14.38;;;3.60;;
37593;SDS011;23441;50.856;6.076;2023-12-20T11:15:30;13.40;;;3.65;;
37593;SDS011;23441;50.856;6.076;2023-12-20T11:18:16;11.75;;;2.97;;
37593;SDS011;23441;50.856;6.076;2023-12-20T11:21:02;11.55;;;4.10;;
37593;SDS011;23441;50.856;6.076;2023-12-20T11:23:50;11.32;;;3.20;;
37593;SDS011;23441;50.856;6.076;2023-12-20T11:26:36;16.30;;;3.80;;
37593;SDS011;23441;50.856;6.076;2023-12-20T11:37:59;14.55;;;3.90;;
37593;SDS011;23441;50.856;6.076;2023-12-20T11:40:45;12.98;;;4.05;;
37593;SDS011;23441;50.856;6.076;2023-12-20T11:43:36;20.15;;;4.35;;
37593;SDS011;23441;50.856;6.076;2023-12-20T11:46:22;13.45;;;4.25;;
37593;SDS011;23441;50.856;6.076;2023-12-20T11:49:09;21.15;;;7.63;;
37593;SDS011;23441;50.856;6.076;2023-12-20T11:51:54;12.45;;;4.22;;
37593;SDS011;23441;50.856;6.076;2023-12-20T11:54:40;14.98;;;4.15;;
37593;SDS011;23441;50.856;6.076;2023-12-20T11:57:26;11.82;;;4.50;;
37593;SDS011;23441;50.856;6.076;2023-12-20T12:00:13;12.45;;;3.72;;
37593;SDS011;23441;50.856;6.076;2023-12-20T12:02:59;12.32;;;3.70;;
37593;SDS011;23441;50.856;6.076;2023-12-20T12:05:47;14.88;;;4.30;;
37593;SDS011;23441;50.856;6.076;2023-12-20T12:08:34;15.57;;;4.78;;
37593;SDS011;23441;50.856;6.076;2023-12-20T12:11:21;20.48;;;3.67;;
37593;SDS011;23441;50.856;6.076;2023-12-20T12:14:08;14.20;;;3.88;;
37593;SDS011;23441;50.856;6.076;2023-12-20T12:16:54;16.02;;;3.55;;
37593;SDS011;23441;50.856;6.076;2023-12-20T12:19:40;17.65;;;3.53;;
37593;SDS011;23441;50.856;6.076;2023-12-20T12:22:27;16.67;;;3.72;;
37593;SDS011;23441;50.856;6.076;2023-12-20T12:25:13;20.20;;;4.00;;
37593;SDS011;23441;50.856;6.076;2023-12-20T12:27:59;14.40;;;3.60;;
37593;SDS011;23441;50.856;6.076;2023-12-20T12:30:58;17.35;;;3.88;;
37593;SDS011;23441;50.856;6.076;2023-12-20T12:33:44;16.40;;;3.85;;
37593;SDS011;23441;50.856;6.076;2023-12-20T12:36:32;11.52;;;3.75;;
37593;SDS011;23441;50.856;6.076;2023-12-20T12:39:18;15.68;;;4.10;;
37593;SDS011;23441;50.856;6.076;2023-12-20T12:42:04;20.55;;;4.30;;
37593;SDS011;23441;50.856;6.076;2023-12-20T12:44:50;11.73;;;3.75;;
37593;SDS011;23441;50.856;6.076;2023-12-20T12:47:36;15.00;;;3.35;;
37593;SDS011;23441;50.856;6.076;2023-12-20T12:50:22;9.02;;;3.33;;
37593;SDS011;23441;50.856;6.076;2023-12-20T12:53:08;15.77;;;3.63;;
37593;SDS011;23441;50.856;6.076;2023-12-20T12:55:54;8.95;;;3.28;;
37593;SDS011;23441;50.856;6.076;2023-12-20T12:58:40;13.82;;;4.28;;
37593;SDS011;23441;50.856;6.076;2023-12-20T13:01:26;19.20;;;4.43;;
37593;SDS011;23441;50.856;6.076;2023-12-20T13:04:12;15.52;;;4.32;;
37593;SDS011;23441;50.856;6.076;2023-12-20T13:06:58;11.93;;;3.65;;
37593;SDS011;23441;50.856;6.076;2023-12-20T13:09:45;15.38;;;4.00;;
37593;SDS011;23441;50.856;6.076;2023-12-20T13:12:31;12.38;;;4.03;;
37593;SDS011;23441;50.856;6.076;2023-12-20T13:15:17;13.80;;;4.05;;
37593;SDS011;23441;50.856;6.076;2023-12-20T13:18:03;13.32;;;4.60;;
37593;SDS011;23441;50.856;6.076;2023-12-20T13:20:51;15.23;;;4.00;;
37593;SDS011;23441;50.856;6.076;2023-12-20T13:23:37;14.77;;;4.18;;
37593;SDS011;23441;50.856;6.076;2023-12-20T13:26:23;17.02;;;4.53;;
37593;SDS011;23441;50.856;6.076;2023-12-20T13:29:09;10.98;;;4.30;;
37593;SDS011;23441;50.856;6.076;2023-12-20T13:31:55;12.85;;;3.58;;
37593;SDS011;23441;50.856;6.076;2023-12-20T13:34:42;17.08;;;5.03;;
37593;SDS011;23441;50.856;6.076;2023-12-20T13:37:27;20.05;;;5.93;;
37593;SDS011;23441;50.856;6.076;2023-12-20T13:40:14;17.25;;;5.13;;
37593;SDS011;23441;50.856;6.076;2023-12-20T13:43:00;11.85;;;3.67;;
37593;SDS011;23441;50.856;6.076;2023-12-20T13:45:48;17.00;;;4.90;;
37593;SDS011;23441;50.856;6.076;2023-12-20T13:48:34;16.52;;;4.75;;
37593;SDS011;23441;50.856;6.076;2023-12-20T13:51:20;12.60;;;4.75;;
37593;SDS011;23441;50.856;6.076;2023-12-20T13:54:06;16.42;;;4.10;;
37593;SDS011;23441;50.856;6.076;2023-12-20T13:56:52;23.77;;;4.97;;
37593;SDS011;23441;50.856;6.076;2023-12-20T13:59:38;20.90;;;4.88;;
37593;SDS011;23441;50.856;6.076;2023-12-20T14:02:24;16.27;;;5.90;;
37593;SDS011;23441;50.856;6.076;2023-12-20T14:05:12;12.32;;;4.00;;
37593;SDS011;23441;50.856;6.076;2023-12-20T14:07:59;16.00;;;3.95;;
37593;SDS011;23441;50.856;6.076;2023-12-20T14:10:45;16.08;;;5.45;;
37593;SDS011;23441;50.856;6.076;2023-12-20T14:13:31;17.40;;;5.05;;
37593;SDS011;23441;50.856;6.076;2023-12-20T14:16:17;15.63;;;4.28;;
37593;SDS011;23441;50.856;6.076;2023-12-20T14:19:03;17.10;;;4.55;;
37593;SDS011;23441;50.856;6.076;2023-12-20T14:21:50;17.90;;;4.60;;
37593;SDS011;23441;50.856;6.076;2023-12-20T14:24:36;12.30;;;4.45;;
37593;SDS011;23441;50.856;6.076;2023-12-20T14:27:22;11.35;;;3.83;;
37593;SDS011;23441;50.856;6.076;2023-12-20T14:30:10;21.35;;;5.15;;
37593;SDS011;23441;50.856;6.076;2023-12-20T14:32:56;17.70;;;4.85;;
37593;SDS011;23441;50.856;6.076;2023-12-20T14:35:42;13.68;;;5.25;;
37593;SDS011;23441;50.856;6.076;2023-12-20T14:38:29;11.55;;;4.45;;
37593;SDS011;23441;50.856;6.076;2023-12-20T14:41:15;15.15;;;4.55;;
37593;SDS011;23441;50.856;6.076;2023-12-20T14:44:03;12.07;;;4.45;;
37593;SDS011;23441;50.856;6.076;2023-12-20T14:46:50;17.13;;;4.95;;
37593;SDS011;23441;50.856;6.076;2023-12-20T14:49:36;13.77;;;4.80;;
37593;SDS011;23441;50.856;6.076;2023-12-20T14:52:22;17.90;;;4.82;;
37593;SDS011;23441;50.856;6.076;2023-12-20T14:55:09;16.75;;;4.65;;
37593;SDS011;23441;50.856;6.076;2023-12-20T14:57:54;19.33;;;5.78;;
37593;SDS011;23441;50.856;6.076;2023-12-20T15:00:40;9.32;;;4.32;;
37593;SDS011;23441;50.856;6.076;2023-12-20T15:03:26;17.65;;;4.53;;
37593;SDS011;23441;50.856;6.076;2023-12-20T15:06:14;12.45;;;4.22;;
37593;SDS011;23441;50.856;6.076;2023-12-20T15:09:00;16.40;;;4.78;;
37593;SDS011;23441;50.856;6.076;2023-12-20T15:11:48;15.57;;;5.15;;
37593;SDS011;23441;50.856;6.076;2023-12-20T15:14:34;13.45;;;5.18;;
37593;SDS011;23441;50.856;6.076;2023-12-20T15:17:20;15.75;;;4.68;;
37593;SDS011;23441;50.856;6.076;2023-12-20T15:20:06;10.80;;;5.00;;
37593;SDS011;23441;50.856;6.076;2023-12-20T15:22:55;16.98;;;5.32;;
37593;SDS011;23441;50.856;6.076;2023-12-20T15:25:44;15.43;;;4.95;;
37593;SDS011;23441;50.856;6.076;2023-12-20T15:28:30;14.77;;;5.35;;
37593;SDS011;23441;50.856;6.076;2023-12-20T15:31:16;10.73;;;4.38;;
37593;SDS011;23441;50.856;6.076;2023-12-20T15:34:02;17.77;;;5.30;;
37593;SDS011;23441;50.856;6.076;2023-12-20T15:36:48;18.40;;;5.85;;
37593;SDS011;23441;50.856;6.076;2023-12-20T15:39:34;17.73;;;7.95;;
37593;SDS011;23441;50.856;6.076;2023-12-20T15:42:19;18.67;;;6.75;;
37593;SDS011;23441;50.856;6.076;2023-12-20T15:45:06;20.70;;;6.03;;
37593;SDS011;23441;50.856;6.076;2023-12-20T15:47:52;18.25;;;5.50;;
37593;SDS011;23441;50.856;6.076;2023-12-20T15:50:38;20.30;;;7.65;;
37593;SDS011;23441;50.856;6.076;2023-12-20T15:53:24;21.98;;;5.97;;
37593;SDS011;23441;50.856;6.076;2023-12-20T15:56:10;17.63;;;6.13;;
37593;SDS011;23441;50.856;6.076;2023-12-20T15:58:56;13.15;;;5.10;;
37593;SDS011;23441;50.856;6.076;2023-12-20T16:01:44;14.90;;;4.85;;
37593;SDS011;23441;50.856;6.076;2023-12-20T16:04:30;12.40;;;5.93;;
37593;SDS011;23441;50.856;6.076;2023-12-20T16:07:16;12.30;;;4.90;;
37593;SDS011;23441;50.856;6.076;2023-12-20T16:10:02;15.90;;;6.30;;
37593;SDS011;23441;50.856;6.076;2023-12-20T16:12:48;21.63;;;5.20;;
37593;SDS011;23441;50.856;6.076;2023-12-20T16:15:34;10.25;;;4.40;;
37593;SDS011;23441;50.856;6.076;2023-12-20T16:18:20;14.18;;;5.78;;
37593;SDS011;23441;50.856;6.076;2023-12-20T16:21:06;16.98;;;5.15;;
37593;SDS011;23441;50.856;6.076;2023-12-20T16:23:52;14.10;;;4.90;;
37593;SDS011;23441;50.856;6.076;2023-12-20T16:26:38;17.58;;;5.22;;
37593;SDS011;23441;50.856;6.076;2023-12-20T16:29:24;9.93;;;4.75;;
37593;SDS011;23441;50.856;6.076;2023-12-20T16:32:09;19.52;;;4.93;;
37593;SDS011;23441;50.856;6.076;2023-12-20T16:34:55;18.20;;;5.35;;